Terminal Aerodrome Forecast
Issued by NWS

Home | Current Version | Previous Version | Text Only | Print | Product List | Glossary Off
Versions: 1 2 3 4 5 6 7 8 9 10 11 12 13 14 15 16 17 18 19 20 21 22

000
FTUS43 KOAX 280800 AAB
TAFCDR
TAF AMD
KCDR 280812Z 2808/2906 29006KT 4SM BR OVC005
     FM281500 32008KT P6SM BKN050
     FM282300 35006KT P6SM SCT050
     FM290200 23010KT P6SM FEW050=

USA.gov is the U.S. government's official web portal to all federal, state and local government web resources and services.